sensor_id;sensor_type;location;lat;lon;timestamp;pressure;altitude;pressure_sealevel;temperature;humidity
48027;BME280;50714;49.208;5.364;2022-12-18T00:04:28;100389.31;;;-3.49;69.91
48027;BME280;50714;49.208;5.364;2022-12-18T00:14:28;100368.59;;;-3.55;69.54
48027;BME280;50714;49.208;5.364;2022-12-18T00:24:29;100361.63;;;-3.56;69.57
48027;BME280;50714;49.208;5.364;2022-12-18T00:34:29;100353.81;;;-3.58;69.63
48027;BME280;50714;49.208;5.364;2022-12-18T00:44:29;100361.13;;;-3.63;68.98
48027;BME280;50714;49.208;5.364;2022-12-18T00:54:30;100374.72;;;-3.55;69.23
48027;BME280;50714;49.208;5.364;2022-12-18T01:04:34;100366.22;;;-3.60;69.15
48027;BME280;50714;49.208;5.364;2022-12-18T01:14:34;100356.88;;;-3.65;69.22
48027;BME280;50714;49.208;5.364;2022-12-18T01:24:34;100378.34;;;-3.71;69.72
48027;BME280;50714;49.208;5.364;2022-12-18T01:34:36;100362.06;;;-3.78;69.65
48027;BME280;50714;49.208;5.364;2022-12-18T01:54:56;100399.69;;;-3.90;70.22
48027;BME280;50714;49.208;5.364;2022-12-18T02:04:58;100390.66;;;-3.86;70.17
48027;BME280;50714;49.208;5.364;2022-12-18T02:15:07;100394.91;;;-3.84;70.42
48027;BME280;50714;49.208;5.364;2022-12-18T02:25:40;100409.16;;;-3.72;70.70
48027;BME280;50714;49.208;5.364;2022-12-18T02:35:47;100407.59;;;-3.90;70.59
48027;BME280;50714;49.208;5.364;2022-12-18T02:45:59;100395.19;;;-3.88;70.35
48027;BME280;50714;49.208;5.364;2022-12-18T02:56:11;100393.25;;;-4.00;70.81
48027;BME280;50714;49.208;5.364;2022-12-18T03:06:21;100383.75;;;-4.03;70.68
48027;BME280;50714;49.208;5.364;2022-12-18T03:16:28;100378.97;;;-4.26;71.04
48027;BME280;50714;49.208;5.364;2022-12-18T03:26:30;100359.16;;;-4.33;70.62
48027;BME280;50714;49.208;5.364;2022-12-18T03:36:31;100362.09;;;-4.54;71.24
48027;BME280;50714;49.208;5.364;2022-12-18T03:46:43;100360.47;;;-4.72;71.77
48027;BME280;50714;49.208;5.364;2022-12-18T03:56:49;100339.41;;;-4.88;71.79
48027;BME280;50714;49.208;5.364;2022-12-18T04:06:51;100336.56;;;-4.99;71.71
48027;BME280;50714;49.208;5.364;2022-12-18T04:16:53;100340.69;;;-5.10;71.83
48027;BME280;50714;49.208;5.364;2022-12-18T04:26:54;100327.16;;;-5.52;72.83
48027;BME280;50714;49.208;5.364;2022-12-18T04:36:54;100350.97;;;-5.55;72.26
48027;BME280;50714;49.208;5.364;2022-12-18T04:46:54;100355.81;;;-5.80;72.41
48027;BME280;50714;49.208;5.364;2022-12-18T04:56:55;100378.91;;;-5.87;72.81
48027;BME280;50714;49.208;5.364;2022-12-18T05:06:56;100392.81;;;-6.00;72.69
48027;BME280;50714;49.208;5.364;2022-12-18T05:16:56;100386.00;;;-6.04;73.03
48027;BME280;50714;49.208;5.364;2022-12-18T05:26:57;100397.78;;;-6.13;72.54
48027;BME280;50714;49.208;5.364;2022-12-18T05:36:57;100401.47;;;-6.15;72.69
48027;BME280;50714;49.208;5.364;2022-12-18T05:46:57;100418.53;;;-6.07;72.53
48027;BME280;50714;49.208;5.364;2022-12-18T05:56:58;100451.97;;;-6.10;74.08
48027;BME280;50714;49.208;5.364;2022-12-18T06:06:58;100451.94;;;-5.92;74.06
48027;BME280;50714;49.208;5.364;2022-12-18T06:16:59;100458.13;;;-5.93;74.68
48027;BME280;50714;49.208;5.364;2022-12-18T06:26:59;100454.38;;;-5.71;74.24
48027;BME280;50714;49.208;5.364;2022-12-18T06:37:00;100450.19;;;-5.58;74.33
48027;BME280;50714;49.208;5.364;2022-12-18T06:47:00;100461.03;;;-5.47;74.19
48027;BME280;50714;49.208;5.364;2022-12-18T06:57:00;100460.69;;;-5.41;74.33
48027;BME280;50714;49.208;5.364;2022-12-18T07:07:01;100419.88;;;-5.48;75.03
48027;BME280;50714;49.208;5.364;2022-12-18T07:17:01;100403.19;;;-5.47;74.49
48027;BME280;50714;49.208;5.364;2022-12-18T07:27:02;100387.41;;;-5.31;74.14
48027;BME280;50714;49.208;5.364;2022-12-18T07:37:02;100405.38;;;-5.22;73.71
48027;BME280;50714;49.208;5.364;2022-12-18T07:47:03;100411.78;;;-5.28;73.91
48027;BME280;50714;49.208;5.364;2022-12-18T07:57:03;100392.78;;;-5.17;73.71
48027;BME280;50714;49.208;5.364;2022-12-18T08:07:03;100400.97;;;-5.06;74.25
48027;BME280;50714;49.208;5.364;2022-12-18T08:17:04;100391.13;;;-5.02;74.25
48027;BME280;50714;49.208;5.364;2022-12-18T08:27:04;100411.25;;;-5.01;74.60
48027;BME280;50714;49.208;5.364;2022-12-18T08:37:05;100428.31;;;-5.08;75.26
48027;BME280;50714;49.208;5.364;2022-12-18T08:47:06;100448.13;;;-4.86;74.67
48027;BME280;50714;49.208;5.364;2022-12-18T08:57:07;100454.94;;;-4.66;74.06
48027;BME280;50714;49.208;5.364;2022-12-18T09:07:07;100444.75;;;-4.40;73.97
48027;BME280;50714;49.208;5.364;2022-12-18T09:17:07;100427.41;;;-4.60;75.13
48027;BME280;50714;49.208;5.364;2022-12-18T09:27:08;100414.84;;;-4.71;76.43
48027;BME280;50714;49.208;5.364;2022-12-18T09:37:08;100408.13;;;-4.45;75.83
48027;BME280;50714;49.208;5.364;2022-12-18T09:47:10;100419.22;;;-4.24;75.70
48027;BME280;50714;49.208;5.364;2022-12-18T09:57:15;100406.28;;;-4.13;75.62
48027;BME280;50714;49.208;5.364;2022-12-18T10:07:25;100404.69;;;-4.16;76.30
48027;BME280;50714;49.208;5.364;2022-12-18T10:27:37;100367.44;;;-3.80;75.30
48027;BME280;50714;49.208;5.364;2022-12-18T10:48:20;100381.03;;;-3.43;75.45
48027;BME280;50714;49.208;5.364;2022-12-18T10:58:37;100378.13;;;-3.38;75.78
48027;BME280;50714;49.208;5.364;2022-12-18T11:08:38;100362.16;;;-3.51;76.00
48027;BME280;50714;49.208;5.364;2022-12-18T11:18:39;100362.19;;;-3.37;76.90
48027;BME280;50714;49.208;5.364;2022-12-18T11:28:46;100374.72;;;-3.12;76.59
48027;BME280;50714;49.208;5.364;2022-12-18T11:38:49;100385.94;;;-2.94;75.68
48027;BME280;50714;49.208;5.364;2022-12-18T11:49:18;100373.00;;;-2.85;75.57
48027;BME280;50714;49.208;5.364;2022-12-18T11:59:30;100355.19;;;-2.95;76.08
48027;BME280;50714;49.208;5.364;2022-12-18T12:30:16;100305.91;;;-2.55;74.38
48027;BME280;50714;49.208;5.364;2022-12-18T12:40:19;100284.34;;;-2.62;74.41
48027;BME280;50714;49.208;5.364;2022-12-18T12:50:21;100286.91;;;-2.48;74.36
48027;BME280;50714;49.208;5.364;2022-12-18T13:00:22;100282.50;;;-2.34;74.31
48027;BME280;50714;49.208;5.364;2022-12-18T13:20:34;100264.13;;;-2.23;73.71
48027;BME280;50714;49.208;5.364;2022-12-18T13:50:38;100257.69;;;-2.19;73.89
48027;BME280;50714;49.208;5.364;2022-12-18T14:00:42;100233.91;;;-2.19;74.21
48027;BME280;50714;49.208;5.364;2022-12-18T14:10:45;100232.41;;;-2.23;73.92
48027;BME280;50714;49.208;5.364;2022-12-18T14:20:49;100227.84;;;-2.34;74.66
48027;BME280;50714;49.208;5.364;2022-12-18T14:30:50;100233.22;;;-2.35;74.61
48027;BME280;50714;49.208;5.364;2022-12-18T14:41:09;100229.31;;;-2.30;74.40
48027;BME280;50714;49.208;5.364;2022-12-18T14:51:41;100213.78;;;-2.34;75.30
48027;BME280;50714;49.208;5.364;2022-12-18T15:02:00;100218.75;;;-2.30;75.24
48027;BME280;50714;49.208;5.364;2022-12-18T15:12:02;100215.34;;;-2.32;75.52
48027;BME280;50714;49.208;5.364;2022-12-18T15:22:02;100218.88;;;-2.19;75.40
48027;BME280;50714;49.208;5.364;2022-12-18T15:32:05;100219.94;;;-2.09;75.24
48027;BME280;50714;49.208;5.364;2022-12-18T15:42:08;100216.34;;;-1.95;75.19
48027;BME280;50714;49.208;5.364;2022-12-18T15:52:27;100224.06;;;-1.92;75.23
48027;BME280;50714;49.208;5.364;2022-12-18T16:02:28;100222.78;;;-1.86;75.48
48027;BME280;50714;49.208;5.364;2022-12-18T16:12:28;100212.31;;;-1.88;75.72
48027;BME280;50714;49.208;5.364;2022-12-18T16:22:29;100178.75;;;-1.87;76.19
48027;BME280;50714;49.208;5.364;2022-12-18T16:32:30;100162.56;;;-1.83;76.02
48027;BME280;50714;49.208;5.364;2022-12-18T16:42:30;100156.75;;;-1.88;76.47
48027;BME280;50714;49.208;5.364;2022-12-18T16:52:30;100147.66;;;-1.84;75.97
48027;BME280;50714;49.208;5.364;2022-12-18T17:02:31;100151.03;;;-1.82;76.24
48027;BME280;50714;49.208;5.364;2022-12-18T17:12:32;100140.22;;;-1.79;75.75
48027;BME280;50714;49.208;5.364;2022-12-18T17:22:32;100143.53;;;-1.88;77.31
48027;BME280;50714;49.208;5.364;2022-12-18T17:32:33;100133.19;;;-1.91;77.67
48027;BME280;50714;49.208;5.364;2022-12-18T17:42:33;100133.28;;;-1.92;78.46
48027;BME280;50714;49.208;5.364;2022-12-18T17:52:33;100119.69;;;-1.75;78.03
48027;BME280;50714;49.208;5.364;2022-12-18T18:02:34;100099.63;;;-1.54;77.93
48027;BME280;50714;49.208;5.364;2022-12-18T18:12:35;100103.88;;;-1.40;77.96
48027;BME280;50714;49.208;5.364;2022-12-18T18:22:55;100103.56;;;-1.35;77.61
48027;BME280;50714;49.208;5.364;2022-12-18T18:32:55;100112.19;;;-1.45;77.60
48027;BME280;50714;49.208;5.364;2022-12-18T18:42:56;100108.69;;;-1.45;78.34
48027;BME280;50714;49.208;5.364;2022-12-18T18:52:56;100098.16;;;-1.34;77.85
48027;BME280;50714;49.208;5.364;2022-12-18T19:02:56;100084.69;;;-1.31;78.87
48027;BME280;50714;49.208;5.364;2022-12-18T19:12:57;100089.97;;;-1.07;78.30
48027;BME280;50714;49.208;5.364;2022-12-18T19:23:16;100081.69;;;-1.02;79.05
48027;BME280;50714;49.208;5.364;2022-12-18T19:33:16;100089.31;;;-0.87;78.82
48027;BME280;50714;49.208;5.364;2022-12-18T19:43:16;100088.84;;;-0.81;79.11
48027;BME280;50714;49.208;5.364;2022-12-18T19:53:17;100089.00;;;-0.71;78.64
48027;BME280;50714;49.208;5.364;2022-12-18T20:03:17;100093.22;;;-0.57;79.33
48027;BME280;50714;49.208;5.364;2022-12-18T20:13:18;100110.94;;;-0.47;79.29
48027;BME280;50714;49.208;5.364;2022-12-18T20:23:18;100110.47;;;-0.41;78.86
48027;BME280;50714;49.208;5.364;2022-12-18T20:33:20;100104.94;;;-0.38;79.38
48027;BME280;50714;49.208;5.364;2022-12-18T20:43:21;100115.47;;;-0.25;79.56
48027;BME280;50714;49.208;5.364;2022-12-18T20:53:21;100107.00;;;-0.30;79.95
48027;BME280;50714;49.208;5.364;2022-12-18T21:03:22;100116.03;;;-0.21;80.26
48027;BME280;50714;49.208;5.364;2022-12-18T21:13:22;100121.47;;;-0.23;80.77
48027;BME280;50714;49.208;5.364;2022-12-18T21:23:22;100118.09;;;-0.14;81.87
48027;BME280;50714;49.208;5.364;2022-12-18T21:33:23;100116.75;;;0.03;82.53
48027;BME280;50714;49.208;5.364;2022-12-18T21:43:23;100119.56;;;0.13;82.50
48027;BME280;50714;49.208;5.364;2022-12-18T21:53:42;100103.16;;;0.19;82.48
48027;BME280;50714;49.208;5.364;2022-12-18T22:03:43;100099.28;;;0.23;83.76
48027;BME280;50714;49.208;5.364;2022-12-18T22:13:44;100084.19;;;0.23;83.84
48027;BME280;50714;49.208;5.364;2022-12-18T22:23:59;100068.97;;;0.37;85.44
48027;BME280;50714;49.208;5.364;2022-12-18T22:34:00;100060.13;;;0.47;84.72
48027;BME280;50714;49.208;5.364;2022-12-18T22:44:01;100049.09;;;0.52;85.08
48027;BME280;50714;49.208;5.364;2022-12-18T22:54:01;100033.53;;;0.58;85.89
48027;BME280;50714;49.208;5.364;2022-12-18T23:04:01;100026.63;;;0.67;85.99
48027;BME280;50714;49.208;5.364;2022-12-18T23:14:02;100013.38;;;0.77;86.48
48027;BME280;50714;49.208;5.364;2022-12-18T23:24:03;100003.63;;;0.77;86.58
48027;BME280;50714;49.208;5.364;2022-12-18T23:34:04;99996.59;;;0.76;87.17
48027;BME280;50714;49.208;5.364;2022-12-18T23:44:05;100009.13;;;0.85;87.85
48027;BME280;50714;49.208;5.364;2022-12-18T23:54:05;100001.50;;;0.92;87.51
